sensor_id;sensor_type;location;lat;lon;timestamp;P1;durP1;ratioP1;P2;durP2;ratioP2
14092;SDS011;7123;49.468;10.992;2022-10-16T00:01:18;1.43;;;1.23;;
14092;SDS011;7123;49.468;10.992;2022-10-16T00:03:46;3.30;;;1.30;;
14092;SDS011;7123;49.468;10.992;2022-10-16T00:06:14;4.60;;;1.20;;
14092;SDS011;7123;49.468;10.992;2022-10-16T00:08:43;2.67;;;1.30;;
14092;SDS011;7123;49.468;10.992;2022-10-16T00:11:12;2.47;;;1.40;;
14092;SDS011;7123;49.468;10.992;2022-10-16T00:13:41;3.87;;;1.50;;
14092;SDS011;7123;49.468;10.992;2022-10-16T00:16:10;2.60;;;1.30;;
14092;SDS011;7123;49.468;10.992;2022-10-16T00:18:38;1.07;;;1.07;;
14092;SDS011;7123;49.468;10.992;2022-10-16T00:21:19;1.30;;;1.20;;
14092;SDS011;7123;49.468;10.992;2022-10-16T00:23:50;1.50;;;1.40;;
14092;SDS011;7123;49.468;10.992;2022-10-16T00:26:18;1.30;;;1.20;;
14092;SDS011;7123;49.468;10.992;2022-10-16T00:28:48;1.97;;;1.40;;
14092;SDS011;7123;49.468;10.992;2022-10-16T00:31:16;2.10;;;1.33;;
14092;SDS011;7123;49.468;10.992;2022-10-16T00:33:44;3.43;;;1.33;;
14092;SDS011;7123;49.468;10.992;2022-10-16T00:36:12;2.00;;;1.10;;
14092;SDS011;7123;49.468;10.992;2022-10-16T00:38:40;5.93;;;1.40;;
14092;SDS011;7123;49.468;10.992;2022-10-16T00:41:07;5.00;;;1.47;;
14092;SDS011;7123;49.468;10.992;2022-10-16T00:46:52;2.97;;;1.60;;
14092;SDS011;7123;49.468;10.992;2022-10-16T00:49:14;1.73;;;1.63;;
14092;SDS011;7123;49.468;10.992;2022-10-16T00:51:52;2.57;;;1.40;;
14092;SDS011;7123;49.468;10.992;2022-10-16T00:54:24;3.40;;;1.40;;
14092;SDS011;7123;49.468;10.992;2022-10-16T00:56:53;4.57;;;1.60;;
14092;SDS011;7123;49.468;10.992;2022-10-16T00:59:29;4.23;;;1.73;;
14092;SDS011;7123;49.468;10.992;2022-10-16T01:02:00;4.57;;;1.80;;
14092;SDS011;7123;49.468;10.992;2022-10-16T01:04:29;2.60;;;2.00;;
14092;SDS011;7123;49.468;10.992;2022-10-16T01:15:26;3.17;;;1.77;;
14092;SDS011;7123;49.468;10.992;2022-10-16T01:20:36;2.50;;;2.10;;
14092;SDS011;7123;49.468;10.992;2022-10-16T01:23:15;3.43;;;1.97;;
14092;SDS011;7123;49.468;10.992;2022-10-16T01:26:09;2.33;;;1.77;;
14092;SDS011;7123;49.468;10.992;2022-10-16T01:29:07;2.07;;;1.77;;
14092;SDS011;7123;49.468;10.992;2022-10-16T01:31:40;4.03;;;1.67;;
14092;SDS011;7123;49.468;10.992;2022-10-16T01:34:30;4.07;;;1.80;;
14092;SDS011;7123;49.468;10.992;2022-10-16T01:37:15;4.03;;;1.97;;
14092;SDS011;7123;49.468;10.992;2022-10-16T01:39:47;2.80;;;1.77;;
14092;SDS011;7123;49.468;10.992;2022-10-16T01:42:19;5.13;;;2.00;;
14092;SDS011;7123;49.468;10.992;2022-10-16T01:44:49;2.10;;;1.50;;
14092;SDS011;7123;49.468;10.992;2022-10-16T01:47:18;3.17;;;1.80;;
14092;SDS011;7123;49.468;10.992;2022-10-16T01:49:49;2.30;;;2.03;;
14092;SDS011;7123;49.468;10.992;2022-10-16T01:52:18;2.47;;;1.90;;
14092;SDS011;7123;49.468;10.992;2022-10-16T01:54:48;6.00;;;1.63;;
14092;SDS011;7123;49.468;10.992;2022-10-16T01:57:18;3.27;;;1.90;;
14092;SDS011;7123;49.468;10.992;2022-10-16T01:59:47;5.43;;;1.97;;
14092;SDS011;7123;49.468;10.992;2022-10-16T02:02:17;2.83;;;1.60;;
14092;SDS011;7123;49.468;10.992;2022-10-16T02:04:47;3.43;;;1.70;;
14092;SDS011;7123;49.468;10.992;2022-10-16T02:07:17;4.53;;;1.70;;
14092;SDS011;7123;49.468;10.992;2022-10-16T02:09:44;2.87;;;1.70;;
14092;SDS011;7123;49.468;10.992;2022-10-16T02:12:27;5.07;;;1.80;;
14092;SDS011;7123;49.468;10.992;2022-10-16T02:14:56;2.60;;;1.77;;
14092;SDS011;7123;49.468;10.992;2022-10-16T02:17:23;5.00;;;1.90;;
14092;SDS011;7123;49.468;10.992;2022-10-16T02:19:51;4.17;;;2.00;;
14092;SDS011;7123;49.468;10.992;2022-10-16T02:22:27;5.63;;;2.10;;
14092;SDS011;7123;49.468;10.992;2022-10-16T02:30:12;5.87;;;1.67;;
14092;SDS011;7123;49.468;10.992;2022-10-16T02:32:47;3.57;;;2.03;;
14092;SDS011;7123;49.468;10.992;2022-10-16T02:35:16;2.57;;;1.60;;
14092;SDS011;7123;49.468;10.992;2022-10-16T02:37:45;4.67;;;2.00;;
14092;SDS011;7123;49.468;10.992;2022-10-16T02:40:13;2.67;;;1.70;;
14092;SDS011;7123;49.468;10.992;2022-10-16T02:42:44;3.77;;;2.03;;
14092;SDS011;7123;49.468;10.992;2022-10-16T02:45:11;1.70;;;1.60;;
14092;SDS011;7123;49.468;10.992;2022-10-16T02:47:38;4.47;;;1.83;;
14092;SDS011;7123;49.468;10.992;2022-10-16T02:50:04;4.33;;;1.90;;
14092;SDS011;7123;49.468;10.992;2022-10-16T02:52:31;2.83;;;1.50;;
14092;SDS011;7123;49.468;10.992;2022-10-16T02:54:58;5.20;;;1.90;;
14092;SDS011;7123;49.468;10.992;2022-10-16T02:57:24;1.80;;;1.70;;
14092;SDS011;7123;49.468;10.992;2022-10-16T02:59:52;5.40;;;1.67;;
14092;SDS011;7123;49.468;10.992;2022-10-16T03:02:18;7.17;;;1.80;;
14092;SDS011;7123;49.468;10.992;2022-10-16T03:04:45;2.17;;;1.83;;
14092;SDS011;7123;49.468;10.992;2022-10-16T03:07:12;1.60;;;1.50;;
14092;SDS011;7123;49.468;10.992;2022-10-16T03:09:38;1.77;;;1.67;;
14092;SDS011;7123;49.468;10.992;2022-10-16T03:12:05;2.07;;;1.60;;
14092;SDS011;7123;49.468;10.992;2022-10-16T03:14:33;3.63;;;1.43;;
14092;SDS011;7123;49.468;10.992;2022-10-16T03:17:00;5.43;;;1.60;;
14092;SDS011;7123;49.468;10.992;2022-10-16T03:19:26;2.23;;;1.57;;
14092;SDS011;7123;49.468;10.992;2022-10-16T03:21:53;3.70;;;1.50;;
14092;SDS011;7123;49.468;10.992;2022-10-16T03:24:19;2.37;;;1.67;;
14092;SDS011;7123;49.468;10.992;2022-10-16T03:26:46;2.47;;;1.60;;
14092;SDS011;7123;49.468;10.992;2022-10-16T03:29:13;2.10;;;1.80;;
14092;SDS011;7123;49.468;10.992;2022-10-16T03:31:39;3.23;;;1.37;;
14092;SDS011;7123;49.468;10.992;2022-10-16T03:34:06;4.17;;;1.60;;
14092;SDS011;7123;49.468;10.992;2022-10-16T03:36:33;2.23;;;1.57;;
14092;SDS011;7123;49.468;10.992;2022-10-16T03:38:59;3.53;;;1.70;;
14092;SDS011;7123;49.468;10.992;2022-10-16T03:41:26;2.37;;;1.60;;
14092;SDS011;7123;49.468;10.992;2022-10-16T03:43:53;3.43;;;1.43;;
14092;SDS011;7123;49.468;10.992;2022-10-16T03:46:19;1.80;;;1.30;;
14092;SDS011;7123;49.468;10.992;2022-10-16T03:48:46;3.53;;;1.60;;
14092;SDS011;7123;49.468;10.992;2022-10-16T03:51:13;3.83;;;1.63;;
14092;SDS011;7123;49.468;10.992;2022-10-16T03:53:40;7.50;;;2.20;;
14092;SDS011;7123;49.468;10.992;2022-10-16T03:56:06;1.77;;;1.60;;
14092;SDS011;7123;49.468;10.992;2022-10-16T03:58:33;3.53;;;1.90;;
14092;SDS011;7123;49.468;10.992;2022-10-16T04:01:00;4.13;;;1.50;;
14092;SDS011;7123;49.468;10.992;2022-10-16T04:03:26;4.97;;;1.60;;
14092;SDS011;7123;49.468;10.992;2022-10-16T04:05:53;6.50;;;1.40;;
14092;SDS011;7123;49.468;10.992;2022-10-16T04:08:20;4.30;;;2.07;;
14092;SDS011;7123;49.468;10.992;2022-10-16T04:10:46;2.40;;;1.80;;
14092;SDS011;7123;49.468;10.992;2022-10-16T04:13:13;1.80;;;1.67;;
14092;SDS011;7123;49.468;10.992;2022-10-16T04:15:40;2.50;;;1.50;;
14092;SDS011;7123;49.468;10.992;2022-10-16T04:18:06;3.10;;;1.67;;
14092;SDS011;7123;49.468;10.992;2022-10-16T04:20:33;4.50;;;1.80;;
14092;SDS011;7123;49.468;10.992;2022-10-16T04:23:00;2.97;;;1.67;;
14092;SDS011;7123;49.468;10.992;2022-10-16T04:25:27;3.50;;;1.60;;
14092;SDS011;7123;49.468;10.992;2022-10-16T04:27:53;2.47;;;1.60;;
14092;SDS011;7123;49.468;10.992;2022-10-16T04:30:21;2.23;;;1.50;;
14092;SDS011;7123;49.468;10.992;2022-10-16T04:32:49;3.27;;;1.50;;
14092;SDS011;7123;49.468;10.992;2022-10-16T04:35:17;3.27;;;1.63;;
14092;SDS011;7123;49.468;10.992;2022-10-16T04:37:44;1.80;;;1.50;;
14092;SDS011;7123;49.468;10.992;2022-10-16T04:40:11;2.80;;;1.60;;
14092;SDS011;7123;49.468;10.992;2022-10-16T04:42:38;2.33;;;1.57;;
14092;SDS011;7123;49.468;10.992;2022-10-16T04:45:05;5.57;;;2.00;;
14092;SDS011;7123;49.468;10.992;2022-10-16T04:47:38;3.00;;;1.80;;
14092;SDS011;7123;49.468;10.992;2022-10-16T04:50:05;3.47;;;1.70;;
14092;SDS011;7123;49.468;10.992;2022-10-16T04:52:32;6.13;;;1.53;;
14092;SDS011;7123;49.468;10.992;2022-10-16T04:55:00;1.70;;;1.60;;
14092;SDS011;7123;49.468;10.992;2022-10-16T04:57:29;2.33;;;1.70;;
14092;SDS011;7123;49.468;10.992;2022-10-16T04:59:56;3.13;;;1.50;;
14092;SDS011;7123;49.468;10.992;2022-10-16T05:02:22;3.23;;;1.83;;
14092;SDS011;7123;49.468;10.992;2022-10-16T05:04:49;4.10;;;1.60;;
14092;SDS011;7123;49.468;10.992;2022-10-16T05:07:15;6.63;;;1.70;;
14092;SDS011;7123;49.468;10.992;2022-10-16T05:09:42;1.73;;;1.60;;
14092;SDS011;7123;49.468;10.992;2022-10-16T05:12:09;1.60;;;1.50;;
14092;SDS011;7123;49.468;10.992;2022-10-16T05:14:35;2.33;;;1.77;;
14092;SDS011;7123;49.468;10.992;2022-10-16T05:17:02;2.70;;;1.60;;
14092;SDS011;7123;49.468;10.992;2022-10-16T05:19:29;1.83;;;1.50;;
14092;SDS011;7123;49.468;10.992;2022-10-16T05:21:56;3.53;;;1.60;;
14092;SDS011;7123;49.468;10.992;2022-10-16T05:24:22;3.57;;;1.77;;
14092;SDS011;7123;49.468;10.992;2022-10-16T05:26:49;4.57;;;1.73;;
14092;SDS011;7123;49.468;10.992;2022-10-16T05:29:16;1.77;;;1.33;;
14092;SDS011;7123;49.468;10.992;2022-10-16T05:31:43;1.73;;;1.20;;
14092;SDS011;7123;49.468;10.992;2022-10-16T05:34:09;1.60;;;1.50;;
14092;SDS011;7123;49.468;10.992;2022-10-16T05:36:36;1.83;;;1.47;;
14092;SDS011;7123;49.468;10.992;2022-10-16T05:39:03;3.83;;;1.67;;
14092;SDS011;7123;49.468;10.992;2022-10-16T05:41:29;5.50;;;1.60;;
14092;SDS011;7123;49.468;10.992;2022-10-16T05:43:57;1.77;;;1.67;;
14092;SDS011;7123;49.468;10.992;2022-10-16T05:46:24;4.50;;;1.70;;
14092;SDS011;7123;49.468;10.992;2022-10-16T05:48:54;2.07;;;1.50;;
14092;SDS011;7123;49.468;10.992;2022-10-16T05:51:20;5.17;;;2.30;;
14092;SDS011;7123;49.468;10.992;2022-10-16T05:53:47;1.63;;;1.50;;
14092;SDS011;7123;49.468;10.992;2022-10-16T05:56:14;1.43;;;1.33;;
14092;SDS011;7123;49.468;10.992;2022-10-16T05:58:40;3.67;;;1.80;;
14092;SDS011;7123;49.468;10.992;2022-10-16T06:01:12;5.83;;;1.70;;
14092;SDS011;7123;49.468;10.992;2022-10-16T06:03:43;1.77;;;1.60;;
14092;SDS011;7123;49.468;10.992;2022-10-16T06:06:14;5.50;;;1.40;;
14092;SDS011;7123;49.468;10.992;2022-10-16T06:08:49;2.80;;;1.80;;
14092;SDS011;7123;49.468;10.992;2022-10-16T06:11:17;2.17;;;1.63;;
14092;SDS011;7123;49.468;10.992;2022-10-16T06:13:45;1.93;;;1.60;;
14092;SDS011;7123;49.468;10.992;2022-10-16T06:16:16;2.07;;;1.90;;
14092;SDS011;7123;49.468;10.992;2022-10-16T06:18:43;1.70;;;1.60;;
14092;SDS011;7123;49.468;10.992;2022-10-16T06:21:10;3.23;;;1.70;;
14092;SDS011;7123;49.468;10.992;2022-10-16T06:23:39;1.83;;;1.50;;
14092;SDS011;7123;49.468;10.992;2022-10-16T06:26:09;4.30;;;1.60;;
14092;SDS011;7123;49.468;10.992;2022-10-16T06:28:37;2.13;;;1.57;;
14092;SDS011;7123;49.468;10.992;2022-10-16T06:31:05;1.70;;;1.60;;
14092;SDS011;7123;49.468;10.992;2022-10-16T06:33:34;1.70;;;1.60;;
14092;SDS011;7123;49.468;10.992;2022-10-16T06:36:03;2.93;;;2.00;;
14092;SDS011;7123;49.468;10.992;2022-10-16T06:38:31;2.00;;;1.80;;
14092;SDS011;7123;49.468;10.992;2022-10-16T06:40:58;1.77;;;1.40;;
14092;SDS011;7123;49.468;10.992;2022-10-16T06:43:25;2.50;;;2.00;;
14092;SDS011;7123;49.468;10.992;2022-10-16T06:45:56;2.57;;;1.60;;
14092;SDS011;7123;49.468;10.992;2022-10-16T06:48:23;3.93;;;1.57;;
14092;SDS011;7123;49.468;10.992;2022-10-16T06:50:56;3.80;;;1.80;;
14092;SDS011;7123;49.468;10.992;2022-10-16T06:53:27;5.17;;;2.00;;
14092;SDS011;7123;49.468;10.992;2022-10-16T06:56:13;3.13;;;1.93;;
14092;SDS011;7123;49.468;10.992;2022-10-16T06:58:41;1.73;;;1.63;;
14092;SDS011;7123;49.468;10.992;2022-10-16T07:01:09;4.33;;;1.63;;
14092;SDS011;7123;49.468;10.992;2022-10-16T07:03:37;2.07;;;1.87;;
14092;SDS011;7123;49.468;10.992;2022-10-16T07:06:05;4.50;;;1.50;;
14092;SDS011;7123;49.468;10.992;2022-10-16T07:08:34;1.63;;;1.37;;
14092;SDS011;7123;49.468;10.992;2022-10-16T07:11:02;2.80;;;2.07;;
14092;SDS011;7123;49.468;10.992;2022-10-16T07:13:37;6.77;;;1.90;;
14092;SDS011;7123;49.468;10.992;2022-10-16T07:16:06;1.70;;;1.60;;
14092;SDS011;7123;49.468;10.992;2022-10-16T07:18:34;3.80;;;1.63;;
14092;SDS011;7123;49.468;10.992;2022-10-16T07:21:03;2.77;;;1.83;;
14092;SDS011;7123;49.468;10.992;2022-10-16T07:23:34;1.90;;;1.60;;
14092;SDS011;7123;49.468;10.992;2022-10-16T07:26:01;2.67;;;1.63;;
14092;SDS011;7123;49.468;10.992;2022-10-16T07:28:28;3.10;;;1.93;;
14092;SDS011;7123;49.468;10.992;2022-10-16T07:30:55;3.67;;;1.53;;
14092;SDS011;7123;49.468;10.992;2022-10-16T07:33:21;2.47;;;1.83;;
14092;SDS011;7123;49.468;10.992;2022-10-16T07:35:49;7.07;;;1.80;;
14092;SDS011;7123;49.468;10.992;2022-10-16T07:38:19;2.23;;;1.80;;
14092;SDS011;7123;49.468;10.992;2022-10-16T07:40:47;3.00;;;1.93;;
14092;SDS011;7123;49.468;10.992;2022-10-16T07:43:21;2.03;;;1.83;;
14092;SDS011;7123;49.468;10.992;2022-10-16T07:45:48;2.87;;;1.83;;
14092;SDS011;7123;49.468;10.992;2022-10-16T07:48:15;2.97;;;1.90;;
14092;SDS011;7123;49.468;10.992;2022-10-16T07:50:43;6.83;;;1.70;;
14092;SDS011;7123;49.468;10.992;2022-10-16T07:53:11;3.07;;;2.00;;
14092;SDS011;7123;49.468;10.992;2022-10-16T07:55:37;2.00;;;1.80;;
14092;SDS011;7123;49.468;10.992;2022-10-16T07:58:05;5.03;;;2.37;;
14092;SDS011;7123;49.468;10.992;2022-10-16T08:00:32;2.73;;;1.87;;
14092;SDS011;7123;49.468;10.992;2022-10-16T08:02:59;2.00;;;1.80;;
14092;SDS011;7123;49.468;10.992;2022-10-16T08:05:26;3.37;;;1.80;;
14092;SDS011;7123;49.468;10.992;2022-10-16T08:07:57;2.00;;;1.90;;
14092;SDS011;7123;49.468;10.992;2022-10-16T08:10:25;3.83;;;2.30;;
14092;SDS011;7123;49.468;10.992;2022-10-16T08:12:53;2.20;;;2.00;;
14092;SDS011;7123;49.468;10.992;2022-10-16T08:15:20;2.13;;;1.93;;
14092;SDS011;7123;49.468;10.992;2022-10-16T08:17:54;4.70;;;1.97;;
14092;SDS011;7123;49.468;10.992;2022-10-16T08:20:25;3.50;;;1.90;;
14092;SDS011;7123;49.468;10.992;2022-10-16T08:22:53;4.57;;;2.00;;
14092;SDS011;7123;49.468;10.992;2022-10-16T08:25:20;2.00;;;1.80;;
14092;SDS011;7123;49.468;10.992;2022-10-16T08:27:48;3.40;;;2.20;;
14092;SDS011;7123;49.468;10.992;2022-10-16T08:30:16;2.90;;;2.00;;
14092;SDS011;7123;49.468;10.992;2022-10-16T08:32:43;3.40;;;2.10;;
14092;SDS011;7123;49.468;10.992;2022-10-16T08:35:10;3.50;;;2.00;;
14092;SDS011;7123;49.468;10.992;2022-10-16T08:37:39;3.17;;;1.97;;
14092;SDS011;7123;49.468;10.992;2022-10-16T08:40:06;2.60;;;1.70;;
14092;SDS011;7123;49.468;10.992;2022-10-16T08:48:45;3.57;;;2.40;;
14092;SDS011;7123;49.468;10.992;2022-10-16T08:51:27;2.43;;;2.00;;
14092;SDS011;7123;49.468;10.992;2022-10-16T08:53:57;2.87;;;1.57;;
14092;SDS011;7123;49.468;10.992;2022-10-16T08:56:29;3.00;;;1.93;;
14092;SDS011;7123;49.468;10.992;2022-10-16T08:58:57;2.27;;;1.80;;
14092;SDS011;7123;49.468;10.992;2022-10-16T09:01:38;3.13;;;1.90;;
14092;SDS011;7123;49.468;10.992;2022-10-16T09:12:17;3.60;;;1.90;;
14092;SDS011;7123;49.468;10.992;2022-10-16T09:15:31;3.40;;;2.03;;
14092;SDS011;7123;49.468;10.992;2022-10-16T09:18:06;3.50;;;2.10;;
14092;SDS011;7123;49.468;10.992;2022-10-16T09:21:05;2.67;;;1.90;;
14092;SDS011;7123;49.468;10.992;2022-10-16T09:23:40;5.53;;;2.20;;
14092;SDS011;7123;49.468;10.992;2022-10-16T09:26:09;2.73;;;2.00;;
14092;SDS011;7123;49.468;10.992;2022-10-16T09:28:39;3.60;;;1.60;;
14092;SDS011;7123;49.468;10.992;2022-10-16T09:31:10;2.90;;;1.97;;
14092;SDS011;7123;49.468;10.992;2022-10-16T09:33:47;2.10;;;1.90;;
14092;SDS011;7123;49.468;10.992;2022-10-16T09:36:17;6.83;;;2.13;;
14092;SDS011;7123;49.468;10.992;2022-10-16T09:38:45;3.67;;;2.10;;
14092;SDS011;7123;49.468;10.992;2022-10-16T09:41:16;2.23;;;2.03;;
14092;SDS011;7123;49.468;10.992;2022-10-16T09:46:48;2.60;;;1.90;;
14092;SDS011;7123;49.468;10.992;2022-10-16T09:49:21;2.03;;;1.93;;
14092;SDS011;7123;49.468;10.992;2022-10-16T09:51:49;2.03;;;1.70;;
14092;SDS011;7123;49.468;10.992;2022-10-16T09:54:18;3.30;;;2.00;;
14092;SDS011;7123;49.468;10.992;2022-10-16T09:56:46;3.27;;;2.03;;
14092;SDS011;7123;49.468;10.992;2022-10-16T09:59:19;2.03;;;1.93;;
14092;SDS011;7123;49.468;10.992;2022-10-16T10:01:50;2.93;;;2.33;;
14092;SDS011;7123;49.468;10.992;2022-10-16T10:04:19;4.07;;;2.10;;
14092;SDS011;7123;49.468;10.992;2022-10-16T10:12:04;6.67;;;1.80;;
14092;SDS011;7123;49.468;10.992;2022-10-16T10:17:11;2.20;;;2.00;;
14092;SDS011;7123;49.468;10.992;2022-10-16T10:19:39;3.13;;;1.90;;
14092;SDS011;7123;49.468;10.992;2022-10-16T10:22:22;4.07;;;2.10;;
14092;SDS011;7123;49.468;10.992;2022-10-16T10:27:55;2.00;;;1.90;;
14092;SDS011;7123;49.468;10.992;2022-10-16T10:33:18;2.90;;;2.10;;
14092;SDS011;7123;49.468;10.992;2022-10-16T10:36:28;2.10;;;2.00;;
14092;SDS011;7123;49.468;10.992;2022-10-16T10:38:39;5.43;;;2.03;;
14092;SDS011;7123;49.468;10.992;2022-10-16T10:41:18;2.53;;;2.27;;
14092;SDS011;7123;49.468;10.992;2022-10-16T10:46:48;3.63;;;2.00;;
14092;SDS011;7123;49.468;10.992;2022-10-16T10:55:09;4.83;;;2.03;;
14092;SDS011;7123;49.468;10.992;2022-10-16T11:05:56;3.50;;;1.93;;
14092;SDS011;7123;49.468;10.992;2022-10-16T11:09:09;3.30;;;2.10;;
14092;SDS011;7123;49.468;10.992;2022-10-16T11:11:29;2.60;;;1.90;;
14092;SDS011;7123;49.468;10.992;2022-10-16T11:14:02;2.10;;;1.90;;
14092;SDS011;7123;49.468;10.992;2022-10-16T11:16:41;3.33;;;1.83;;
14092;SDS011;7123;49.468;10.992;2022-10-16T11:22:28;2.10;;;1.87;;
14092;SDS011;7123;49.468;10.992;2022-10-16T11:27:36;3.53;;;2.00;;
14092;SDS011;7123;49.468;10.992;2022-10-16T11:30:05;5.27;;;1.87;;
14092;SDS011;7123;49.468;10.992;2022-10-16T11:41:09;3.47;;;1.70;;
14092;SDS011;7123;49.468;10.992;2022-10-16T11:43:43;3.97;;;1.63;;
14092;SDS011;7123;49.468;10.992;2022-10-16T11:46:19;3.70;;;1.93;;
14092;SDS011;7123;49.468;10.992;2022-10-16T11:48:52;2.10;;;1.93;;
14092;SDS011;7123;49.468;10.992;2022-10-16T11:51:40;1.80;;;1.70;;
14092;SDS011;7123;49.468;10.992;2022-10-16T11:54:21;3.53;;;2.17;;
14092;SDS011;7123;49.468;10.992;2022-10-16T11:56:55;3.60;;;1.83;;
14092;SDS011;7123;49.468;10.992;2022-10-16T12:02:40;2.40;;;1.73;;
14092;SDS011;7123;49.468;10.992;2022-10-16T12:10:29;1.87;;;1.70;;
14092;SDS011;7123;49.468;10.992;2022-10-16T12:18:42;2.40;;;1.80;;
14092;SDS011;7123;49.468;10.992;2022-10-16T12:21:10;2.93;;;1.60;;
14092;SDS011;7123;49.468;10.992;2022-10-16T12:23:51;4.10;;;2.00;;
14092;SDS011;7123;49.468;10.992;2022-10-16T12:26:29;2.67;;;2.00;;
14092;SDS011;7123;49.468;10.992;2022-10-16T12:32:02;3.87;;;1.90;;
14092;SDS011;7123;49.468;10.992;2022-10-16T12:34:34;1.93;;;1.73;;
14092;SDS011;7123;49.468;10.992;2022-10-16T12:37:10;2.57;;;1.43;;
14092;SDS011;7123;49.468;10.992;2022-10-16T12:39:40;2.20;;;1.50;;
14092;SDS011;7123;49.468;10.992;2022-10-16T12:44:52;2.30;;;1.60;;
14092;SDS011;7123;49.468;10.992;2022-10-16T12:47:24;2.73;;;1.50;;
14092;SDS011;7123;49.468;10.992;2022-10-16T12:50:03;1.90;;;1.70;;
14092;SDS011;7123;49.468;10.992;2022-10-16T12:52:48;4.83;;;1.60;;
14092;SDS011;7123;49.468;10.992;2022-10-16T12:55:16;3.03;;;1.77;;
14092;SDS011;7123;49.468;10.992;2022-10-16T13:09:02;1.50;;;1.40;;
14092;SDS011;7123;49.468;10.992;2022-10-16T13:19:46;3.67;;;1.40;;
14092;SDS011;7123;49.468;10.992;2022-10-16T13:22:40;1.87;;;1.30;;
14092;SDS011;7123;49.468;10.992;2022-10-16T13:25:17;2.92;;;1.60;;
14092;SDS011;7123;49.468;10.992;2022-10-16T13:30:24;3.87;;;1.30;;
14092;SDS011;7123;49.468;10.992;2022-10-16T13:33:15;1.33;;;1.23;;
14092;SDS011;7123;49.468;10.992;2022-10-16T13:35:53;4.57;;;1.80;;
14092;SDS011;7123;49.468;10.992;2022-10-16T13:38:22;3.27;;;1.50;;
14092;SDS011;7123;49.468;10.992;2022-10-16T13:40:53;3.28;;;1.50;;
14092;SDS011;7123;49.468;10.992;2022-10-16T13:43:35;2.33;;;1.73;;
14092;SDS011;7123;49.468;10.992;2022-10-16T13:48:41;4.18;;;1.40;;
14092;SDS011;7123;49.468;10.992;2022-10-16T13:51:16;3.38;;;1.27;;
14092;SDS011;7123;49.468;10.992;2022-10-16T13:53:44;1.20;;;1.10;;
14092;SDS011;7123;49.468;10.992;2022-10-16T13:56:13;2.45;;;1.58;;
14092;SDS011;7123;49.468;10.992;2022-10-16T13:58:42;1.60;;;1.50;;
14092;SDS011;7123;49.468;10.992;2022-10-16T14:01:19;4.17;;;1.33;;
14092;SDS011;7123;49.468;10.992;2022-10-16T14:04:15;1.65;;;1.23;;
14092;SDS011;7123;49.468;10.992;2022-10-16T14:06:45;7.63;;;1.40;;
14092;SDS011;7123;49.468;10.992;2022-10-16T14:09:20;1.17;;;1.02;;
14092;SDS011;7123;49.468;10.992;2022-10-16T14:14:45;2.72;;;1.30;;
14092;SDS011;7123;49.468;10.992;2022-10-16T14:17:14;1.98;;;1.20;;
14092;SDS011;7123;49.468;10.992;2022-10-16T14:19:48;1.95;;;1.42;;
14092;SDS011;7123;49.468;10.992;2022-10-16T14:22:27;1.38;;;1.30;;
14092;SDS011;7123;49.468;10.992;2022-10-16T14:28:03;4.30;;;1.20;;
14092;SDS011;7123;49.468;10.992;2022-10-16T14:30:50;3.03;;;1.30;;
14092;SDS011;7123;49.468;10.992;2022-10-16T14:35:57;2.25;;;1.20;;
14092;SDS011;7123;49.468;10.992;2022-10-16T14:38:31;5.47;;;1.60;;
14092;SDS011;7123;49.468;10.992;2022-10-16T14:40:59;2.30;;;1.20;;
14092;SDS011;7123;49.468;10.992;2022-10-16T14:43:36;2.25;;;1.30;;
14092;SDS011;7123;49.468;10.992;2022-10-16T14:46:10;1.38;;;1.23;;
14092;SDS011;7123;49.468;10.992;2022-10-16T14:48:41;6.47;;;1.40;;
14092;SDS011;7123;49.468;10.992;2022-10-16T14:51:19;3.27;;;1.43;;
14092;SDS011;7123;49.468;10.992;2022-10-16T14:53:46;1.57;;;1.47;;
14092;SDS011;7123;49.468;10.992;2022-10-16T14:56:20;3.85;;;1.20;;
14092;SDS011;7123;49.468;10.992;2022-10-16T14:58:49;1.10;;;1.10;;
14092;SDS011;7123;49.468;10.992;2022-10-16T15:01:17;4.28;;;1.15;;
14092;SDS011;7123;49.468;10.992;2022-10-16T15:03:44;2.15;;;1.10;;
14092;SDS011;7123;49.468;10.992;2022-10-16T15:06:11;2.20;;;1.25;;
14092;SDS011;7123;49.468;10.992;2022-10-16T15:08:40;2.47;;;1.25;;
14092;SDS011;7123;49.468;10.992;2022-10-16T15:11:11;1.50;;;1.40;;
14092;SDS011;7123;49.468;10.992;2022-10-16T15:13:40;1.52;;;1.40;;
14092;SDS011;7123;49.468;10.992;2022-10-16T15:16:09;2.08;;;1.45;;
14092;SDS011;7123;49.468;10.992;2022-10-16T15:18:37;2.60;;;1.90;;
14092;SDS011;7123;49.468;10.992;2022-10-16T15:21:04;4.47;;;1.85;;
14092;SDS011;7123;49.468;10.992;2022-10-16T15:23:31;2.05;;;1.70;;
14092;SDS011;7123;49.468;10.992;2022-10-16T15:25:58;2.00;;;1.40;;
14092;SDS011;7123;49.468;10.992;2022-10-16T15:28:25;5.93;;;1.80;;
14092;SDS011;7123;49.468;10.992;2022-10-16T15:30:53;1.67;;;1.58;;
14092;SDS011;7123;49.468;10.992;2022-10-16T15:33:23;2.08;;;1.80;;
14092;SDS011;7123;49.468;10.992;2022-10-16T15:35:53;2.93;;;1.60;;
14092;SDS011;7123;49.468;10.992;2022-10-16T15:38:20;3.27;;;1.67;;
14092;SDS011;7123;49.468;10.992;2022-10-16T15:40:48;2.67;;;1.60;;
14092;SDS011;7123;49.468;10.992;2022-10-16T15:43:15;2.23;;;1.90;;
14092;SDS011;7123;49.468;10.992;2022-10-16T15:45:42;2.08;;;1.88;;
14092;SDS011;7123;49.468;10.992;2022-10-16T15:48:10;3.35;;;1.90;;
14092;SDS011;7123;49.468;10.992;2022-10-16T15:50:38;3.33;;;1.92;;
14092;SDS011;7123;49.468;10.992;2022-10-16T15:53:06;11.23;;;1.90;;
14092;SDS011;7123;49.468;10.992;2022-10-16T15:55:33;2.90;;;1.73;;
14092;SDS011;7123;49.468;10.992;2022-10-16T15:58:02;2.13;;;1.80;;
14092;SDS011;7123;49.468;10.992;2022-10-16T16:00:28;1.80;;;1.70;;
14092;SDS011;7123;49.468;10.992;2022-10-16T16:02:55;2.37;;;1.83;;
14092;SDS011;7123;49.468;10.992;2022-10-16T16:05:22;1.55;;;1.45;;
14092;SDS011;7123;49.468;10.992;2022-10-16T16:07:49;2.33;;;2.10;;
14092;SDS011;7123;49.468;10.992;2022-10-16T16:10:16;3.50;;;1.87;;
14092;SDS011;7123;49.468;10.992;2022-10-16T16:12:46;2.37;;;2.10;;
14092;SDS011;7123;49.468;10.992;2022-10-16T16:15:21;2.17;;;2.07;;
14092;SDS011;7123;49.468;10.992;2022-10-16T16:17:48;4.60;;;2.20;;
14092;SDS011;7123;49.468;10.992;2022-10-16T16:20:15;4.37;;;2.10;;
14092;SDS011;7123;49.468;10.992;2022-10-16T16:22:42;5.73;;;2.17;;
14092;SDS011;7123;49.468;10.992;2022-10-16T16:25:09;2.87;;;2.00;;
14092;SDS011;7123;49.468;10.992;2022-10-16T16:27:35;2.47;;;1.90;;
14092;SDS011;7123;49.468;10.992;2022-10-16T16:30:05;4.13;;;1.77;;
14092;SDS011;7123;49.468;10.992;2022-10-16T16:32:33;1.87;;;1.77;;
14092;SDS011;7123;49.468;10.992;2022-10-16T16:35:01;1.97;;;1.70;;
14092;SDS011;7123;49.468;10.992;2022-10-16T16:37:28;4.30;;;2.00;;
14092;SDS011;7123;49.468;10.992;2022-10-16T16:39:55;4.13;;;2.00;;
14092;SDS011;7123;49.468;10.992;2022-10-16T16:42:27;3.80;;;2.00;;
14092;SDS011;7123;49.468;10.992;2022-10-16T16:44:54;6.47;;;1.80;;
14092;SDS011;7123;49.468;10.992;2022-10-16T16:47:20;2.20;;;2.10;;
14092;SDS011;7123;49.468;10.992;2022-10-16T16:49:47;5.17;;;1.97;;
14092;SDS011;7123;49.468;10.992;2022-10-16T16:52:14;2.90;;;2.07;;
14092;SDS011;7123;49.468;10.992;2022-10-16T16:54:41;2.73;;;2.07;;
14092;SDS011;7123;49.468;10.992;2022-10-16T16:57:07;2.27;;;1.90;;
14092;SDS011;7123;49.468;10.992;2022-10-16T16:59:34;2.73;;;2.13;;
14092;SDS011;7123;49.468;10.992;2022-10-16T17:02:01;3.23;;;1.90;;
14092;SDS011;7123;49.468;10.992;2022-10-16T17:04:28;5.20;;;2.37;;
14092;SDS011;7123;49.468;10.992;2022-10-16T17:06:55;5.40;;;2.20;;
14092;SDS011;7123;49.468;10.992;2022-10-16T17:09:22;3.40;;;2.20;;
14092;SDS011;7123;49.468;10.992;2022-10-16T17:11:49;2.20;;;2.00;;
14092;SDS011;7123;49.468;10.992;2022-10-16T17:14:16;7.03;;;2.20;;
14092;SDS011;7123;49.468;10.992;2022-10-16T17:16:42;2.80;;;2.10;;
14092;SDS011;7123;49.468;10.992;2022-10-16T17:19:11;2.87;;;2.40;;
14092;SDS011;7123;49.468;10.992;2022-10-16T17:21:40;5.17;;;2.33;;